sensor_id;sensor_type;location;lat;lon;timestamp;P1;durP1;ratioP1;P2;durP2;ratioP2
14078;SDS011;7115;50.150;8.568;2023-08-06T00:01:54;4.93;;;3.50;;
14078;SDS011;7115;50.150;8.568;2023-08-06T00:04:21;4.33;;;3.17;;
14078;SDS011;7115;50.150;8.568;2023-08-06T00:06:48;4.30;;;3.00;;
14078;SDS011;7115;50.150;8.568;2023-08-06T00:09:15;4.70;;;3.27;;
14078;SDS011;7115;50.150;8.568;2023-08-06T00:11:43;5.30;;;3.50;;
14078;SDS011;7115;50.150;8.568;2023-08-06T00:14:10;4.40;;;3.70;;
14078;SDS011;7115;50.150;8.568;2023-08-06T00:16:39;4.17;;;3.33;;
14078;SDS011;7115;50.150;8.568;2023-08-06T00:19:06;5.40;;;3.43;;
14078;SDS011;7115;50.150;8.568;2023-08-06T00:21:33;4.27;;;3.50;;
14078;SDS011;7115;50.150;8.568;2023-08-06T00:23:59;5.03;;;4.07;;
14078;SDS011;7115;50.150;8.568;2023-08-06T00:26:26;6.10;;;3.80;;
14078;SDS011;7115;50.150;8.568;2023-08-06T00:28:54;5.43;;;3.83;;
14078;SDS011;7115;50.150;8.568;2023-08-06T00:31:21;6.07;;;3.63;;
14078;SDS011;7115;50.150;8.568;2023-08-06T00:33:48;3.60;;;3.30;;
14078;SDS011;7115;50.150;8.568;2023-08-06T00:36:15;6.47;;;3.97;;
14078;SDS011;7115;50.150;8.568;2023-08-06T00:38:43;6.43;;;3.90;;
14078;SDS011;7115;50.150;8.568;2023-08-06T00:41:10;6.07;;;3.60;;
14078;SDS011;7115;50.150;8.568;2023-08-06T00:43:37;6.30;;;3.67;;
14078;SDS011;7115;50.150;8.568;2023-08-06T00:46:05;5.47;;;3.73;;
14078;SDS011;7115;50.150;8.568;2023-08-06T00:48:32;6.47;;;3.90;;
14078;SDS011;7115;50.150;8.568;2023-08-06T00:50:59;4.43;;;3.87;;
14078;SDS011;7115;50.150;8.568;2023-08-06T00:53:27;6.03;;;4.10;;
14078;SDS011;7115;50.150;8.568;2023-08-06T00:55:54;5.53;;;3.73;;
14078;SDS011;7115;50.150;8.568;2023-08-06T00:58:21;8.27;;;3.77;;
14078;SDS011;7115;50.150;8.568;2023-08-06T01:00:48;6.07;;;4.13;;
14078;SDS011;7115;50.150;8.568;2023-08-06T01:03:16;6.97;;;3.93;;
14078;SDS011;7115;50.150;8.568;2023-08-06T01:05:43;6.40;;;4.03;;
14078;SDS011;7115;50.150;8.568;2023-08-06T01:08:16;8.13;;;5.00;;
14078;SDS011;7115;50.150;8.568;2023-08-06T01:10:55;6.27;;;3.93;;
14078;SDS011;7115;50.150;8.568;2023-08-06T01:13:38;10.73;;;4.23;;
14078;SDS011;7115;50.150;8.568;2023-08-06T01:16:09;5.93;;;4.10;;
14078;SDS011;7115;50.150;8.568;2023-08-06T01:18:39;4.43;;;4.03;;
14078;SDS011;7115;50.150;8.568;2023-08-06T01:21:09;6.07;;;4.10;;
14078;SDS011;7115;50.150;8.568;2023-08-06T01:23:36;6.37;;;3.97;;
14078;SDS011;7115;50.150;8.568;2023-08-06T01:26:05;11.37;;;4.57;;
14078;SDS011;7115;50.150;8.568;2023-08-06T01:28:40;7.73;;;4.13;;
14078;SDS011;7115;50.150;8.568;2023-08-06T01:31:15;5.70;;;3.93;;
14078;SDS011;7115;50.150;8.568;2023-08-06T01:33:46;5.97;;;4.50;;
14078;SDS011;7115;50.150;8.568;2023-08-06T01:36:16;6.80;;;4.43;;
14078;SDS011;7115;50.150;8.568;2023-08-06T01:38:44;5.30;;;3.67;;
14078;SDS011;7115;50.150;8.568;2023-08-06T01:41:11;6.97;;;3.73;;
14078;SDS011;7115;50.150;8.568;2023-08-06T01:43:38;4.73;;;4.03;;
14078;SDS011;7115;50.150;8.568;2023-08-06T01:46:05;7.37;;;4.17;;
14078;SDS011;7115;50.150;8.568;2023-08-06T01:48:32;4.83;;;3.60;;
14078;SDS011;7115;50.150;8.568;2023-08-06T01:50:58;9.70;;;4.27;;
14078;SDS011;7115;50.150;8.568;2023-08-06T01:53:27;4.93;;;3.70;;
14078;SDS011;7115;50.150;8.568;2023-08-06T01:55:53;6.17;;;4.27;;
14078;SDS011;7115;50.150;8.568;2023-08-06T01:58:20;5.90;;;4.27;;
14078;SDS011;7115;50.150;8.568;2023-08-06T02:00:47;6.23;;;3.90;;
14078;SDS011;7115;50.150;8.568;2023-08-06T02:03:14;5.27;;;3.73;;
14078;SDS011;7115;50.150;8.568;2023-08-06T02:05:41;3.67;;;3.37;;
14078;SDS011;7115;50.150;8.568;2023-08-06T02:08:08;5.83;;;3.37;;
14078;SDS011;7115;50.150;8.568;2023-08-06T02:10:36;6.70;;;3.47;;
14078;SDS011;7115;50.150;8.568;2023-08-06T02:13:03;3.47;;;2.97;;
14078;SDS011;7115;50.150;8.568;2023-08-06T02:15:29;8.43;;;3.20;;
14078;SDS011;7115;50.150;8.568;2023-08-06T02:17:56;5.27;;;3.27;;
14078;SDS011;7115;50.150;8.568;2023-08-06T02:20:23;5.10;;;3.10;;
14078;SDS011;7115;50.150;8.568;2023-08-06T02:22:50;9.00;;;3.37;;
14078;SDS011;7115;50.150;8.568;2023-08-06T02:25:17;8.70;;;3.70;;
14078;SDS011;7115;50.150;8.568;2023-08-06T02:27:45;5.70;;;3.20;;
14078;SDS011;7115;50.150;8.568;2023-08-06T02:30:12;4.33;;;2.83;;
14078;SDS011;7115;50.150;8.568;2023-08-06T02:32:39;4.53;;;3.43;;
14078;SDS011;7115;50.150;8.568;2023-08-06T02:35:06;3.93;;;3.07;;
14078;SDS011;7115;50.150;8.568;2023-08-06T02:37:33;6.87;;;2.97;;
14078;SDS011;7115;50.150;8.568;2023-08-06T02:40:00;4.90;;;3.23;;
14078;SDS011;7115;50.150;8.568;2023-08-06T02:42:28;5.00;;;3.67;;
14078;SDS011;7115;50.150;8.568;2023-08-06T02:44:56;4.03;;;3.00;;
14078;SDS011;7115;50.150;8.568;2023-08-06T02:47:23;6.13;;;3.10;;
14078;SDS011;7115;50.150;8.568;2023-08-06T02:49:50;5.50;;;2.80;;
14078;SDS011;7115;50.150;8.568;2023-08-06T02:52:17;5.20;;;3.73;;
14078;SDS011;7115;50.150;8.568;2023-08-06T02:54:44;3.60;;;3.10;;
14078;SDS011;7115;50.150;8.568;2023-08-06T02:57:11;5.83;;;2.93;;
14078;SDS011;7115;50.150;8.568;2023-08-06T02:59:38;5.63;;;3.10;;
14078;SDS011;7115;50.150;8.568;2023-08-06T03:02:06;4.77;;;3.17;;
14078;SDS011;7115;50.150;8.568;2023-08-06T03:04:33;4.60;;;2.87;;
14078;SDS011;7115;50.150;8.568;2023-08-06T03:07:00;8.33;;;3.20;;
14078;SDS011;7115;50.150;8.568;2023-08-06T03:09:26;4.60;;;2.90;;
14078;SDS011;7115;50.150;8.568;2023-08-06T03:11:53;5.23;;;3.73;;
14078;SDS011;7115;50.150;8.568;2023-08-06T03:14:20;4.63;;;2.97;;
14078;SDS011;7115;50.150;8.568;2023-08-06T03:16:47;6.37;;;3.00;;
14078;SDS011;7115;50.150;8.568;2023-08-06T03:19:15;7.60;;;3.40;;
14078;SDS011;7115;50.150;8.568;2023-08-06T03:21:42;5.27;;;3.37;;
14078;SDS011;7115;50.150;8.568;2023-08-06T03:24:09;5.40;;;2.57;;
14078;SDS011;7115;50.150;8.568;2023-08-06T03:26:36;4.70;;;3.13;;
14078;SDS011;7115;50.150;8.568;2023-08-06T03:29:03;4.87;;;3.30;;
14078;SDS011;7115;50.150;8.568;2023-08-06T03:31:30;5.13;;;2.80;;
14078;SDS011;7115;50.150;8.568;2023-08-06T03:33:57;6.57;;;2.77;;
14078;SDS011;7115;50.150;8.568;2023-08-06T03:36:25;2.90;;;2.50;;
14078;SDS011;7115;50.150;8.568;2023-08-06T03:38:52;5.73;;;2.80;;
14078;SDS011;7115;50.150;8.568;2023-08-06T03:41:18;5.47;;;2.73;;
14078;SDS011;7115;50.150;8.568;2023-08-06T03:43:45;5.33;;;2.90;;
14078;SDS011;7115;50.150;8.568;2023-08-06T03:46:12;4.10;;;2.80;;
14078;SDS011;7115;50.150;8.568;2023-08-06T03:48:39;4.20;;;2.70;;
14078;SDS011;7115;50.150;8.568;2023-08-06T03:51:06;3.63;;;2.90;;
14078;SDS011;7115;50.150;8.568;2023-08-06T03:53:34;6.43;;;2.77;;
14078;SDS011;7115;50.150;8.568;2023-08-06T03:56:01;3.17;;;2.20;;
14078;SDS011;7115;50.150;8.568;2023-08-06T03:58:28;5.43;;;2.30;;
14078;SDS011;7115;50.150;8.568;2023-08-06T04:00:59;4.67;;;2.43;;
14078;SDS011;7115;50.150;8.568;2023-08-06T04:03:26;6.03;;;2.80;;
14078;SDS011;7115;50.150;8.568;2023-08-06T04:05:53;2.93;;;2.20;;
14078;SDS011;7115;50.150;8.568;2023-08-06T04:08:20;5.33;;;2.77;;
14078;SDS011;7115;50.150;8.568;2023-08-06T04:10:50;5.10;;;2.50;;
14078;SDS011;7115;50.150;8.568;2023-08-06T04:13:18;4.87;;;2.33;;
14078;SDS011;7115;50.150;8.568;2023-08-06T04:15:46;7.33;;;2.43;;
14078;SDS011;7115;50.150;8.568;2023-08-06T04:18:13;5.00;;;2.50;;
14078;SDS011;7115;50.150;8.568;2023-08-06T04:20:44;4.43;;;2.20;;
14078;SDS011;7115;50.150;8.568;2023-08-06T04:23:11;2.83;;;2.10;;
14078;SDS011;7115;50.150;8.568;2023-08-06T04:25:39;3.33;;;2.10;;
14078;SDS011;7115;50.150;8.568;2023-08-06T04:28:07;4.20;;;2.30;;
14078;SDS011;7115;50.150;8.568;2023-08-06T04:30:34;4.37;;;2.00;;
14078;SDS011;7115;50.150;8.568;2023-08-06T04:33:01;4.00;;;2.27;;
14078;SDS011;7115;50.150;8.568;2023-08-06T04:35:28;4.03;;;2.13;;
14078;SDS011;7115;50.150;8.568;2023-08-06T04:37:54;5.40;;;1.87;;
14078;SDS011;7115;50.150;8.568;2023-08-06T04:40:21;3.07;;;2.03;;
14078;SDS011;7115;50.150;8.568;2023-08-06T04:42:48;4.30;;;2.33;;
14078;SDS011;7115;50.150;8.568;2023-08-06T04:45:16;4.60;;;1.77;;
14078;SDS011;7115;50.150;8.568;2023-08-06T04:47:43;3.03;;;1.90;;
14078;SDS011;7115;50.150;8.568;2023-08-06T04:50:10;3.30;;;1.90;;
14078;SDS011;7115;50.150;8.568;2023-08-06T04:52:37;6.27;;;2.23;;
14078;SDS011;7115;50.150;8.568;2023-08-06T04:55:04;6.13;;;1.87;;
14078;SDS011;7115;50.150;8.568;2023-08-06T04:57:32;3.63;;;1.70;;
14078;SDS011;7115;50.150;8.568;2023-08-06T04:59:59;4.37;;;1.80;;
14078;SDS011;7115;50.150;8.568;2023-08-06T05:02:27;4.80;;;1.50;;
14078;SDS011;7115;50.150;8.568;2023-08-06T05:04:54;3.37;;;1.53;;
14078;SDS011;7115;50.150;8.568;2023-08-06T05:07:21;4.40;;;1.43;;
14078;SDS011;7115;50.150;8.568;2023-08-06T05:09:48;3.77;;;1.80;;
14078;SDS011;7115;50.150;8.568;2023-08-06T05:12:15;4.40;;;1.77;;
14078;SDS011;7115;50.150;8.568;2023-08-06T05:14:42;2.83;;;1.70;;
14078;SDS011;7115;50.150;8.568;2023-08-06T05:17:08;2.93;;;1.40;;
14078;SDS011;7115;50.150;8.568;2023-08-06T05:19:37;4.97;;;1.73;;
14078;SDS011;7115;50.150;8.568;2023-08-06T05:22:04;5.43;;;1.80;;
14078;SDS011;7115;50.150;8.568;2023-08-06T05:24:31;5.50;;;1.73;;
14078;SDS011;7115;50.150;8.568;2023-08-06T05:26:58;4.50;;;2.13;;
14078;SDS011;7115;50.150;8.568;2023-08-06T05:29:25;1.67;;;1.23;;
14078;SDS011;7115;50.150;8.568;2023-08-06T05:31:53;6.03;;;1.37;;
14078;SDS011;7115;50.150;8.568;2023-08-06T05:34:20;2.60;;;1.17;;
14078;SDS011;7115;50.150;8.568;2023-08-06T05:36:48;3.77;;;1.20;;
14078;SDS011;7115;50.150;8.568;2023-08-06T05:39:15;5.47;;;1.40;;
14078;SDS011;7115;50.150;8.568;2023-08-06T05:41:42;3.33;;;1.40;;
14078;SDS011;7115;50.150;8.568;2023-08-06T05:44:09;1.80;;;1.23;;
14078;SDS011;7115;50.150;8.568;2023-08-06T05:46:36;2.10;;;1.47;;
14078;SDS011;7115;50.150;8.568;2023-08-06T05:49:02;5.70;;;1.93;;
14078;SDS011;7115;50.150;8.568;2023-08-06T05:51:30;3.03;;;1.40;;
14078;SDS011;7115;50.150;8.568;2023-08-06T05:53:58;3.50;;;1.30;;
14078;SDS011;7115;50.150;8.568;2023-08-06T05:56:24;1.90;;;1.33;;
14078;SDS011;7115;50.150;8.568;2023-08-06T05:58:51;2.13;;;1.00;;
14078;SDS011;7115;50.150;8.568;2023-08-06T06:01:19;2.80;;;1.30;;
14078;SDS011;7115;50.150;8.568;2023-08-06T06:03:46;4.50;;;1.40;;
14078;SDS011;7115;50.150;8.568;2023-08-06T06:06:13;4.00;;;1.37;;
14078;SDS011;7115;50.150;8.568;2023-08-06T06:08:42;5.33;;;1.30;;
14078;SDS011;7115;50.150;8.568;2023-08-06T06:11:10;3.70;;;1.30;;
14078;SDS011;7115;50.150;8.568;2023-08-06T06:13:37;1.80;;;0.93;;
14078;SDS011;7115;50.150;8.568;2023-08-06T06:16:04;2.20;;;1.17;;
14078;SDS011;7115;50.150;8.568;2023-08-06T06:18:31;1.93;;;1.00;;
14078;SDS011;7115;50.150;8.568;2023-08-06T06:20:58;2.17;;;1.00;;
14078;SDS011;7115;50.150;8.568;2023-08-06T06:23:25;3.23;;;1.30;;
14078;SDS011;7115;50.150;8.568;2023-08-06T06:25:52;2.33;;;1.23;;
14078;SDS011;7115;50.150;8.568;2023-08-06T06:28:20;2.73;;;1.30;;
14078;SDS011;7115;50.150;8.568;2023-08-06T06:30:47;2.30;;;1.20;;
14078;SDS011;7115;50.150;8.568;2023-08-06T06:33:14;3.80;;;1.00;;
14078;SDS011;7115;50.150;8.568;2023-08-06T06:35:41;3.07;;;1.20;;
14078;SDS011;7115;50.150;8.568;2023-08-06T06:38:08;3.10;;;1.20;;
14078;SDS011;7115;50.150;8.568;2023-08-06T06:40:35;2.03;;;0.90;;
14078;SDS011;7115;50.150;8.568;2023-08-06T06:43:02;2.13;;;0.90;;
14078;SDS011;7115;50.150;8.568;2023-08-06T06:45:30;1.37;;;0.90;;
14078;SDS011;7115;50.150;8.568;2023-08-06T06:47:57;1.93;;;0.77;;
14078;SDS011;7115;50.150;8.568;2023-08-06T06:50:24;4.07;;;0.77;;
14078;SDS011;7115;50.150;8.568;2023-08-06T06:52:52;1.77;;;0.60;;
14078;SDS011;7115;50.150;8.568;2023-08-06T06:55:19;2.57;;;0.70;;
14078;SDS011;7115;50.150;8.568;2023-08-06T06:57:45;2.43;;;0.73;;
14078;SDS011;7115;50.150;8.568;2023-08-06T07:00:13;2.77;;;1.07;;
14078;SDS011;7115;50.150;8.568;2023-08-06T07:02:41;2.37;;;0.80;;
14078;SDS011;7115;50.150;8.568;2023-08-06T07:05:08;1.00;;;0.70;;
14078;SDS011;7115;50.150;8.568;2023-08-06T07:07:35;1.50;;;0.70;;
14078;SDS011;7115;50.150;8.568;2023-08-06T07:10:04;1.13;;;0.80;;
14078;SDS011;7115;50.150;8.568;2023-08-06T07:12:32;1.53;;;0.70;;
14078;SDS011;7115;50.150;8.568;2023-08-06T07:14:58;2.23;;;0.70;;
14078;SDS011;7115;50.150;8.568;2023-08-06T07:17:25;1.10;;;0.83;;
14078;SDS011;7115;50.150;8.568;2023-08-06T07:19:54;0.67;;;0.50;;
14078;SDS011;7115;50.150;8.568;2023-08-06T07:22:20;1.90;;;0.70;;
14078;SDS011;7115;50.150;8.568;2023-08-06T07:24:47;1.73;;;0.70;;
14078;SDS011;7115;50.150;8.568;2023-08-06T07:27:14;0.70;;;0.50;;
14078;SDS011;7115;50.150;8.568;2023-08-06T07:29:41;3.37;;;0.63;;
14078;SDS011;7115;50.150;8.568;2023-08-06T07:32:08;1.03;;;0.60;;
14078;SDS011;7115;50.150;8.568;2023-08-06T07:34:35;1.43;;;0.80;;
14078;SDS011;7115;50.150;8.568;2023-08-06T07:37:03;1.07;;;0.70;;
14078;SDS011;7115;50.150;8.568;2023-08-06T07:39:30;2.30;;;0.70;;
14078;SDS011;7115;50.150;8.568;2023-08-06T07:41:57;2.80;;;0.80;;
14078;SDS011;7115;50.150;8.568;2023-08-06T07:44:24;1.53;;;0.60;;
14078;SDS011;7115;50.150;8.568;2023-08-06T07:46:51;0.73;;;0.43;;
14078;SDS011;7115;50.150;8.568;2023-08-06T07:49:18;0.50;;;0.30;;
14078;SDS011;7115;50.150;8.568;2023-08-06T07:51:44;0.77;;;0.40;;
14078;SDS011;7115;50.150;8.568;2023-08-06T07:54:13;1.23;;;0.50;;
14078;SDS011;7115;50.150;8.568;2023-08-06T07:56:39;2.17;;;0.50;;
14078;SDS011;7115;50.150;8.568;2023-08-06T07:59:06;2.53;;;0.60;;
14078;SDS011;7115;50.150;8.568;2023-08-06T08:01:33;0.43;;;0.40;;
14078;SDS011;7115;50.150;8.568;2023-08-06T08:04:00;1.93;;;0.50;;
14078;SDS011;7115;50.150;8.568;2023-08-06T08:06:27;0.63;;;0.50;;
14078;SDS011;7115;50.150;8.568;2023-08-06T08:08:54;1.60;;;0.63;;
14078;SDS011;7115;50.150;8.568;2023-08-06T08:11:22;1.13;;;0.60;;
14078;SDS011;7115;50.150;8.568;2023-08-06T08:13:49;1.10;;;0.70;;
14078;SDS011;7115;50.150;8.568;2023-08-06T08:16:16;0.50;;;0.50;;
14078;SDS011;7115;50.150;8.568;2023-08-06T08:18:43;0.70;;;0.70;;
14078;SDS011;7115;50.150;8.568;2023-08-06T08:21:09;1.27;;;0.70;;
14078;SDS011;7115;50.150;8.568;2023-08-06T08:23:36;0.90;;;0.40;;
14078;SDS011;7115;50.150;8.568;2023-08-06T08:26:05;3.30;;;0.50;;
14078;SDS011;7115;50.150;8.568;2023-08-06T08:28:33;0.50;;;0.30;;
14078;SDS011;7115;50.150;8.568;2023-08-06T08:31:00;0.93;;;0.47;;
14078;SDS011;7115;50.150;8.568;2023-08-06T08:33:27;2.03;;;0.53;;
14078;SDS011;7115;50.150;8.568;2023-08-06T08:35:54;2.13;;;0.60;;
14078;SDS011;7115;50.150;8.568;2023-08-06T08:38:20;2.40;;;0.67;;
14078;SDS011;7115;50.150;8.568;2023-08-06T08:40:47;1.37;;;0.60;;
14078;SDS011;7115;50.150;8.568;2023-08-06T08:43:18;2.90;;;0.50;;
14078;SDS011;7115;50.150;8.568;2023-08-06T08:45:49;1.93;;;0.53;;
14078;SDS011;7115;50.150;8.568;2023-08-06T08:48:17;1.00;;;0.60;;
14078;SDS011;7115;50.150;8.568;2023-08-06T08:50:47;1.17;;;0.47;;
14078;SDS011;7115;50.150;8.568;2023-08-06T08:53:15;0.50;;;0.50;;
14078;SDS011;7115;50.150;8.568;2023-08-06T08:55:43;0.40;;;0.40;;
14078;SDS011;7115;50.150;8.568;2023-08-06T08:58:10;0.90;;;0.63;;
14078;SDS011;7115;50.150;8.568;2023-08-06T09:00:37;0.90;;;0.33;;
14078;SDS011;7115;50.150;8.568;2023-08-06T09:03:07;1.50;;;0.50;;
14078;SDS011;7115;50.150;8.568;2023-08-06T09:05:34;3.53;;;0.50;;
14078;SDS011;7115;50.150;8.568;2023-08-06T09:08:02;2.60;;;0.50;;
14078;SDS011;7115;50.150;8.568;2023-08-06T09:10:30;0.67;;;0.50;;
14078;SDS011;7115;50.150;8.568;2023-08-06T09:12:57;2.47;;;0.40;;
14078;SDS011;7115;50.150;8.568;2023-08-06T09:15:27;0.30;;;0.30;;
14078;SDS011;7115;50.150;8.568;2023-08-06T09:17:54;0.83;;;0.37;;
14078;SDS011;7115;50.150;8.568;2023-08-06T09:20:23;0.23;;;0.17;;
14078;SDS011;7115;50.150;8.568;2023-08-06T09:22:52;3.37;;;1.60;;
14078;SDS011;7115;50.150;8.568;2023-08-06T09:25:20;2.63;;;1.50;;
14078;SDS011;7115;50.150;8.568;2023-08-06T09:27:50;0.67;;;0.50;;
14078;SDS011;7115;50.150;8.568;2023-08-06T09:30:28;0.40;;;0.40;;
14078;SDS011;7115;50.150;8.568;2023-08-06T09:32:57;0.30;;;0.30;;
14078;SDS011;7115;50.150;8.568;2023-08-06T09:35:27;2.90;;;1.67;;
14078;SDS011;7115;50.150;8.568;2023-08-06T09:37:55;0.47;;;0.30;;
14078;SDS011;7115;50.150;8.568;2023-08-06T09:40:31;0.10;;;0.10;;
14078;SDS011;7115;50.150;8.568;2023-08-06T09:43:07;0.30;;;0.20;;
14078;SDS011;7115;50.150;8.568;2023-08-06T09:45:35;0.43;;;0.30;;
14078;SDS011;7115;50.150;8.568;2023-08-06T09:48:03;0.40;;;0.20;;
14078;SDS011;7115;50.150;8.568;2023-08-06T09:50:32;0.83;;;0.20;;
14078;SDS011;7115;50.150;8.568;2023-08-06T09:53:03;0.73;;;0.20;;
14078;SDS011;7115;50.150;8.568;2023-08-06T09:55:31;0.43;;;0.20;;
14078;SDS011;7115;50.150;8.568;2023-08-06T09:57:59;2.47;;;0.23;;
14078;SDS011;7115;50.150;8.568;2023-08-06T10:00:27;0.60;;;0.23;;
14078;SDS011;7115;50.150;8.568;2023-08-06T10:02:55;1.73;;;0.93;;
14078;SDS011;7115;50.150;8.568;2023-08-06T10:05:27;1.00;;;0.10;;
14078;SDS011;7115;50.150;8.568;2023-08-06T10:07:54;0.20;;;0.20;;
14078;SDS011;7115;50.150;8.568;2023-08-06T10:10:22;0.40;;;0.20;;
14078;SDS011;7115;50.150;8.568;2023-08-06T10:12:51;1.13;;;0.40;;
14078;SDS011;7115;50.150;8.568;2023-08-06T10:15:22;0.83;;;0.40;;
14078;SDS011;7115;50.150;8.568;2023-08-06T10:17:56;0.93;;;0.50;;
14078;SDS011;7115;50.150;8.568;2023-08-06T10:20:25;0.50;;;0.40;;
14078;SDS011;7115;50.150;8.568;2023-08-06T10:22:59;0.97;;;0.60;;
14078;SDS011;7115;50.150;8.568;2023-08-06T10:25:30;1.73;;;0.40;;
14078;SDS011;7115;50.150;8.568;2023-08-06T10:27:59;0.90;;;0.70;;
14078;SDS011;7115;50.150;8.568;2023-08-06T10:30:27;0.47;;;0.30;;
14078;SDS011;7115;50.150;8.568;2023-08-06T10:32:56;0.50;;;0.30;;
14078;SDS011;7115;50.150;8.568;2023-08-06T10:35:30;2.60;;;0.57;;
14078;SDS011;7115;50.150;8.568;2023-08-06T10:38:05;1.30;;;0.30;;
14078;SDS011;7115;50.150;8.568;2023-08-06T10:40:34;1.97;;;0.30;;
14078;SDS011;7115;50.150;8.568;2023-08-06T10:43:02;1.23;;;0.30;;
14078;SDS011;7115;50.150;8.568;2023-08-06T10:45:29;0.10;;;0.10;;
14078;SDS011;7115;50.150;8.568;2023-08-06T10:48:01;0.77;;;0.77;;
14078;SDS011;7115;50.150;8.568;2023-08-06T10:50:28;0.20;;;0.10;;
14078;SDS011;7115;50.150;8.568;2023-08-06T10:52:56;0.20;;;0.20;;
14078;SDS011;7115;50.150;8.568;2023-08-06T10:55:24;0.20;;;0.10;;
14078;SDS011;7115;50.150;8.568;2023-08-06T10:57:51;0.27;;;0.20;;
14078;SDS011;7115;50.150;8.568;2023-08-06T11:00:18;0.17;;;0.17;;
14078;SDS011;7115;50.150;8.568;2023-08-06T11:02:47;0.10;;;0.10;;
14078;SDS011;7115;50.150;8.568;2023-08-06T11:05:16;0.13;;;0.13;;
14078;SDS011;7115;50.150;8.568;2023-08-06T11:07:43;0.20;;;0.20;;
14078;SDS011;7115;50.150;8.568;2023-08-06T11:10:11;0.10;;;0.10;;
14078;SDS011;7115;50.150;8.568;2023-08-06T11:12:38;0.40;;;0.20;;
14078;SDS011;7115;50.150;8.568;2023-08-06T11:15:06;0.93;;;0.20;;
14078;SDS011;7115;50.150;8.568;2023-08-06T11:17:34;0.53;;;0.40;;
14078;SDS011;7115;50.150;8.568;2023-08-06T11:20:01;0.20;;;0.20;;
14078;SDS011;7115;50.150;8.568;2023-08-06T11:22:30;0.20;;;0.20;;
14078;SDS011;7115;50.150;8.568;2023-08-06T11:24:58;0.63;;;0.30;;
14078;SDS011;7115;50.150;8.568;2023-08-06T11:27:27;0.30;;;0.20;;
14078;SDS011;7115;50.150;8.568;2023-08-06T11:29:55;1.40;;;0.23;;
14078;SDS011;7115;50.150;8.568;2023-08-06T11:32:22;0.13;;;0.13;;
14078;SDS011;7115;50.150;8.568;2023-08-06T11:34:49;0.20;;;0.20;;
14078;SDS011;7115;50.150;8.568;2023-08-06T11:37:16;0.30;;;0.27;;
14078;SDS011;7115;50.150;8.568;2023-08-06T11:39:48;0.10;;;0.10;;
14078;SDS011;7115;50.150;8.568;2023-08-06T11:42:15;0.30;;;0.30;;
14078;SDS011;7115;50.150;8.568;2023-08-06T11:44:42;0.60;;;0.27;;
14078;SDS011;7115;50.150;8.568;2023-08-06T11:47:13;1.00;;;0.40;;
14078;SDS011;7115;50.150;8.568;2023-08-06T11:49:42;1.70;;;0.40;;
14078;SDS011;7115;50.150;8.568;2023-08-06T11:52:13;0.13;;;0.10;;
14078;SDS011;7115;50.150;8.568;2023-08-06T11:54:41;2.23;;;0.20;;
14078;SDS011;7115;50.150;8.568;2023-08-06T11:57:10;0.20;;;0.10;;
14078;SDS011;7115;50.150;8.568;2023-08-06T11:59:37;1.33;;;0.20;;
14078;SDS011;7115;50.150;8.568;2023-08-06T12:02:07;7.00;;;1.90;;
14078;SDS011;7115;50.150;8.568;2023-08-06T12:07:26;0.17;;;0.10;;
14078;SDS011;7115;50.150;8.568;2023-08-06T12:09:54;0.50;;;0.10;;
14078;SDS011;7115;50.150;8.568;2023-08-06T12:12:23;0.20;;;0.20;;
14078;SDS011;7115;50.150;8.568;2023-08-06T12:14:49;0.43;;;0.20;;
14078;SDS011;7115;50.150;8.568;2023-08-06T12:17:16;0.80;;;0.30;;
14078;SDS011;7115;50.150;8.568;2023-08-06T12:19:44;0.20;;;0.20;;
14078;SDS011;7115;50.150;8.568;2023-08-06T12:22:12;0.73;;;0.20;;
14078;SDS011;7115;50.150;8.568;2023-08-06T12:24:40;0.20;;;0.10;;
14078;SDS011;7115;50.150;8.568;2023-08-06T12:27:07;3.23;;;0.30;;
14078;SDS011;7115;50.150;8.568;2023-08-06T12:29:35;0.40;;;0.37;;
14078;SDS011;7115;50.150;8.568;2023-08-06T12:32:03;2.10;;;0.87;;
14078;SDS011;7115;50.150;8.568;2023-08-06T12:34:31;0.20;;;0.20;;
14078;SDS011;7115;50.150;8.568;2023-08-06T12:37:16;1.60;;;0.20;;
14078;SDS011;7115;50.150;8.568;2023-08-06T12:39:43;1.27;;;0.30;;
14078;SDS011;7115;50.150;8.568;2023-08-06T12:42:10;0.50;;;0.27;;
14078;SDS011;7115;50.150;8.568;2023-08-06T12:44:38;0.10;;;0.10;;
14078;SDS011;7115;50.150;8.568;2023-08-06T12:47:06;2.10;;;0.20;;
14078;SDS011;7115;50.150;8.568;2023-08-06T12:49:33;1.10;;;0.30;;
14078;SDS011;7115;50.150;8.568;2023-08-06T12:52:01;0.47;;;0.20;;
14078;SDS011;7115;50.150;8.568;2023-08-06T12:54:28;0.80;;;0.40;;
14078;SDS011;7115;50.150;8.568;2023-08-06T12:56:55;1.40;;;0.50;;
14078;SDS011;7115;50.150;8.568;2023-08-06T12:59:22;1.20;;;0.50;;
14078;SDS011;7115;50.150;8.568;2023-08-06T13:01:50;0.60;;;0.40;;
14078;SDS011;7115;50.150;8.568;2023-08-06T13:04:17;0.80;;;0.30;;
14078;SDS011;7115;50.150;8.568;2023-08-06T13:06:48;0.73;;;0.30;;
14078;SDS011;7115;50.150;8.568;2023-08-06T13:09:15;0.33;;;0.20;;
14078;SDS011;7115;50.150;8.568;2023-08-06T13:11:42;0.67;;;0.40;;
14078;SDS011;7115;50.150;8.568;2023-08-06T13:14:12;0.20;;;0.20;;
14078;SDS011;7115;50.150;8.568;2023-08-06T13:16:41;0.40;;;0.30;;
14078;SDS011;7115;50.150;8.568;2023-08-06T13:19:16;0.80;;;0.20;;
14078;SDS011;7115;50.150;8.568;2023-08-06T13:24:34;0.70;;;0.20;;
14078;SDS011;7115;50.150;8.568;2023-08-06T13:27:01;0.47;;;0.30;;
14078;SDS011;7115;50.150;8.568;2023-08-06T13:29:29;1.07;;;0.30;;
14078;SDS011;7115;50.150;8.568;2023-08-06T13:31:56;0.20;;;0.10;;
14078;SDS011;7115;50.150;8.568;2023-08-06T13:34:24;1.17;;;0.30;;
14078;SDS011;7115;50.150;8.568;2023-08-06T13:36:51;0.20;;;0.20;;
14078;SDS011;7115;50.150;8.568;2023-08-06T13:39:18;0.67;;;0.47;;
14078;SDS011;7115;50.150;8.568;2023-08-06T13:41:46;0.50;;;0.40;;
14078;SDS011;7115;50.150;8.568;2023-08-06T13:44:13;4.27;;;3.70;;
14078;SDS011;7115;50.150;8.568;2023-08-06T13:46:41;0.40;;;0.20;;
14078;SDS011;7115;50.150;8.568;2023-08-06T13:49:08;0.37;;;0.20;;
14078;SDS011;7115;50.150;8.568;2023-08-06T13:51:37;0.47;;;0.20;;
14078;SDS011;7115;50.150;8.568;2023-08-06T13:54:04;0.47;;;0.30;;
14078;SDS011;7115;50.150;8.568;2023-08-06T13:56:32;1.13;;;0.40;;
14078;SDS011;7115;50.150;8.568;2023-08-06T13:58:59;1.03;;;0.37;;
14078;SDS011;7115;50.150;8.568;2023-08-06T14:01:26;1.67;;;0.20;;
14078;SDS011;7115;50.150;8.568;2023-08-06T14:04:13;0.97;;;0.67;;
14078;SDS011;7115;50.150;8.568;2023-08-06T14:06:41;1.93;;;0.30;;
14078;SDS011;7115;50.150;8.568;2023-08-06T14:09:08;0.67;;;0.30;;
14078;SDS011;7115;50.150;8.568;2023-08-06T14:11:35;0.63;;;0.37;;
14078;SDS011;7115;50.150;8.568;2023-08-06T14:14:02;1.27;;;0.40;;
14078;SDS011;7115;50.150;8.568;2023-08-06T14:16:29;2.03;;;0.53;;
14078;SDS011;7115;50.150;8.568;2023-08-06T14:18:56;0.93;;;0.50;;
14078;SDS011;7115;50.150;8.568;2023-08-06T14:21:23;0.80;;;0.40;;
14078;SDS011;7115;50.150;8.568;2023-08-06T14:23:51;0.50;;;0.30;;
14078;SDS011;7115;50.150;8.568;2023-08-06T14:26:18;0.40;;;0.30;;
14078;SDS011;7115;50.150;8.568;2023-08-06T14:28:45;0.20;;;0.13;;
14078;SDS011;7115;50.150;8.568;2023-08-06T14:31:12;1.50;;;0.20;;
14078;SDS011;7115;50.150;8.568;2023-08-06T14:33:39;0.90;;;0.40;;
14078;SDS011;7115;50.150;8.568;2023-08-06T14:36:06;0.70;;;0.30;;
14078;SDS011;7115;50.150;8.568;2023-08-06T14:38:33;3.37;;;0.57;;
14078;SDS011;7115;50.150;8.568;2023-08-06T14:41:16;1.03;;;0.20;;
14078;SDS011;7115;50.150;8.568;2023-08-06T14:43:43;1.00;;;0.30;;
14078;SDS011;7115;50.150;8.568;2023-08-06T14:46:10;0.93;;;0.40;;
14078;SDS011;7115;50.150;8.568;2023-08-06T14:48:37;0.50;;;0.27;;
14078;SDS011;7115;50.150;8.568;2023-08-06T14:51:05;0.30;;;0.20;;
14078;SDS011;7115;50.150;8.568;2023-08-06T14:53:32;0.20;;;0.20;;
14078;SDS011;7115;50.150;8.568;2023-08-06T14:55:58;0.40;;;0.30;;
14078;SDS011;7115;50.150;8.568;2023-08-06T14:58:27;0.37;;;0.30;;
14078;SDS011;7115;50.150;8.568;2023-08-06T15:00:53;1.40;;;0.80;;
14078;SDS011;7115;50.150;8.568;2023-08-06T15:03:20;0.40;;;0.20;;
14078;SDS011;7115;50.150;8.568;2023-08-06T15:05:47;0.50;;;0.20;;
14078;SDS011;7115;50.150;8.568;2023-08-06T15:08:17;0.53;;;0.40;;
14078;SDS011;7115;50.150;8.568;2023-08-06T15:10:49;0.60;;;0.50;;